createdAt,value
2023-04-18T04:02:34.268Z,10.37
2023-04-18T04:05:02.652Z,9.68
2023-04-18T04:07:29.417Z,10.40
2023-04-18T04:09:56.070Z,10.10
2023-04-18T04:12:22.649Z,10.48
2023-04-18T04:14:49.194Z,10.10
2023-04-18T04:17:15.963Z,10.10
2023-04-18T04:19:42.485Z,10.00
2023-04-18T04:22:09.397Z,9.07
2023-04-18T04:24:38.475Z,10.65
2023-04-18T04:27:05.283Z,10.68
2023-04-18T04:29:31.825Z,10.07
2023-04-18T04:31:59.848Z,10.57
2023-04-18T04:34:27.019Z,10.18
2023-04-18T04:36:55.098Z,10.57
2023-04-18T04:39:21.920Z,10.13
2023-04-18T04:41:49.408Z,10.10
2023-04-18T04:44:18.057Z,10.20
2023-04-18T04:46:45.452Z,10.32
2023-04-18T04:49:13.275Z,10.15
2023-04-18T04:51:40.371Z,10.50
2023-04-18T04:54:06.989Z,10.82
2023-04-18T04:56:33.661Z,11.07
2023-04-18T04:59:00.911Z,10.82
2023-04-18T05:01:40.017Z,10.65
2023-04-18T05:04:06.820Z,11.23
2023-04-18T05:06:34.151Z,10.15
2023-04-18T05:09:01.233Z,10.48
2023-04-18T05:11:27.850Z,11.17
2023-04-18T05:13:54.592Z,11.38
2023-04-18T05:16:21.217Z,12.00
2023-04-18T05:18:48.716Z,10.98
2023-04-18T05:21:15.438Z,10.88
2023-04-18T05:23:42.325Z,11.40
2023-04-18T05:26:09.225Z,11.93
2023-04-18T05:28:35.773Z,10.27
2023-04-18T05:31:02.487Z,10.63
2023-04-18T05:33:30.799Z,11.15
2023-04-18T05:35:58.058Z,10.97
2023-04-18T05:38:25.094Z,11.57
2023-04-18T05:40:51.765Z,11.70
2023-04-18T05:43:19.456Z,12.38
2023-04-18T05:45:46.987Z,11.43
2023-04-18T05:48:14.403Z,10.77
2023-04-18T05:50:41.533Z,10.35
2023-04-18T05:53:08.686Z,11.88
2023-04-18T05:55:35.412Z,11.20
2023-04-18T05:58:02.592Z,11.23
2023-04-18T06:00:30.878Z,10.37
2023-04-18T06:02:58.586Z,11.60
2023-04-18T06:05:25.449Z,11.52
2023-04-18T06:07:52.278Z,11.30
2023-04-18T06:10:19.390Z,11.50
2023-04-18T06:12:45.968Z,10.70
2023-04-18T06:15:12.602Z,11.60
2023-04-18T06:17:39.624Z,11.13
2023-04-18T06:20:07.077Z,12.10
2023-04-18T06:22:36.790Z,11.95
2023-04-18T06:25:04.105Z,11.70
2023-04-18T06:27:32.155Z,11.93
2023-04-18T06:29:58.978Z,11.70
2023-04-18T06:32:25.934Z,11.30
2023-04-18T06:34:53.523Z,11.57
2023-04-18T06:37:20.693Z,11.40
2023-04-18T06:39:47.436Z,11.55
2023-04-18T06:42:13.997Z,11.35
2023-04-18T06:44:43.095Z,11.35
2023-04-18T06:47:10.541Z,10.63
2023-04-18T06:49:37.148Z,12.53
2023-04-18T06:52:03.810Z,11.68
2023-04-18T06:54:30.353Z,11.70
2023-04-18T06:56:57.229Z,11.35
2023-04-18T06:59:23.824Z,11.20
2023-04-18T07:01:51.422Z,10.60
2023-04-18T07:04:18.413Z,10.60
2023-04-18T07:06:45.434Z,10.85
2023-04-18T07:09:11.984Z,11.25
2023-04-18T07:11:40.561Z,11.27
2023-04-18T07:14:07.218Z,11.13
2023-04-18T07:16:34.590Z,11.43
2023-04-18T07:19:01.285Z,11.00
2023-04-18T07:21:28.042Z,11.18
2023-04-18T07:23:54.665Z,11.02
2023-04-18T07:26:21.216Z,10.30
2023-04-18T07:28:48.803Z,11.20
2023-04-18T07:31:16.568Z,10.80
2023-04-18T07:33:43.467Z,10.13
2023-04-18T07:36:10.208Z,10.73
2023-04-18T07:38:36.880Z,10.80
2023-04-18T07:41:03.683Z,10.30
2023-04-18T07:43:30.660Z,10.65
2023-04-18T07:45:57.357Z,9.63
2023-04-18T07:48:25.333Z,9.32
2023-04-18T07:50:52.450Z,9.80
2023-04-18T07:53:19.057Z,9.40
2023-04-18T07:55:46.592Z,9.82
2023-04-18T07:58:13.603Z,9.40
2023-04-18T08:00:43.274Z,9.23
2023-04-18T08:03:13.040Z,8.93
2023-04-18T08:05:40.957Z,9.68
2023-04-18T08:08:09.326Z,9.43
2023-04-18T08:10:36.267Z,9.35
2023-04-18T08:13:03.810Z,9.00
2023-04-18T08:15:32.601Z,9.07
2023-04-18T08:18:00.714Z,9.43
2023-04-18T08:20:29.234Z,9.23
2023-04-18T08:25:25.664Z,9.10
2023-04-18T08:27:52.242Z,9.50
2023-04-18T08:30:19.467Z,8.55
2023-04-18T08:32:46.057Z,8.52
2023-04-18T08:35:12.808Z,9.43
2023-04-18T08:37:39.385Z,9.02
2023-04-18T08:40:07.508Z,8.63
2023-04-18T08:42:36.324Z,8.38
2023-04-18T08:45:04.276Z,8.45
2023-04-18T08:47:31.186Z,9.00
2023-04-18T08:49:58.609Z,8.13
2023-04-18T08:52:28.357Z,8.60
2023-04-18T08:54:54.889Z,7.47
2023-04-18T08:57:27.001Z,8.20
2023-04-18T08:59:54.374Z,8.23
2023-04-18T09:02:26.888Z,8.13
2023-04-18T09:04:53.649Z,7.80
2023-04-18T09:07:27.707Z,7.72
2023-04-18T09:09:59.462Z,7.57
2023-04-18T09:12:27.991Z,7.82
2023-04-18T09:14:57.845Z,8.35
2023-04-18T09:17:31.722Z,7.80
2023-04-18T09:19:59.905Z,7.80
2023-04-18T09:22:26.436Z,7.65
2023-04-18T09:24:58.716Z,8.02
2023-04-18T09:27:25.311Z,7.65
2023-04-18T09:29:54.751Z,8.00
2023-04-18T09:32:29.476Z,7.75
2023-04-18T09:35:05.404Z,7.78
2023-04-18T09:37:32.102Z,7.40
2023-04-18T09:39:58.731Z,7.25
2023-04-18T09:42:28.189Z,6.77
2023-04-18T09:45:06.618Z,7.70
2023-04-18T09:47:35.243Z,7.05
2023-04-18T09:50:06.772Z,7.25
2023-04-18T09:52:38.537Z,7.45
2023-04-18T09:55:07.566Z,7.67
2023-04-18T09:57:35.870Z,7.50
2023-04-18T10:00:26.524Z,8.05
2023-04-18T10:03:09.958Z,7.38
2023-04-18T10:05:39.778Z,7.00
2023-04-18T10:08:07.065Z,6.93
2023-04-18T10:10:38.960Z,7.32
2023-04-18T10:13:08.474Z,7.57
2023-04-18T10:15:35.258Z,7.63
2023-04-18T10:18:11.501Z,7.30
2023-04-18T10:20:41.215Z,6.73
2023-04-18T10:23:34.656Z,7.78
2023-04-18T10:26:02.923Z,7.40
2023-04-18T10:28:54.683Z,7.75
2023-04-18T10:31:23.075Z,6.03
2023-04-18T10:34:03.985Z,6.10
2023-04-18T10:36:32.497Z,6.05
2023-04-18T10:39:21.566Z,5.75
2023-04-18T10:41:50.581Z,5.38
2023-04-18T10:44:19.617Z,4.90
2023-04-18T10:46:52.070Z,3.50
2023-04-18T10:49:27.859Z,3.90
2023-04-18T10:51:58.710Z,4.78
2023-04-18T10:54:46.582Z,4.10
2023-04-18T10:57:13.880Z,3.33
2023-04-18T10:59:48.083Z,4.03
2023-04-18T11:02:32.354Z,4.13
2023-04-18T11:05:01.551Z,4.10
2023-04-18T11:07:37.412Z,4.80
2023-04-18T11:10:05.605Z,4.32
2023-04-18T11:12:34.878Z,3.00
2023-04-18T11:15:10.635Z,2.30
2023-04-18T11:17:40.127Z,2.00
2023-04-18T11:20:15.326Z,2.08
2023-04-18T11:22:48.898Z,2.30
2023-04-18T11:25:16.690Z,3.50
2023-04-18T11:27:45.184Z,3.75
2023-04-18T11:30:13.148Z,4.22
2023-04-18T11:32:39.899Z,4.25
2023-04-18T11:35:09.507Z,4.78
2023-04-18T11:37:37.768Z,4.40
2023-04-18T11:40:08.726Z,4.13
2023-04-18T11:42:37.364Z,4.00
2023-04-18T11:45:04.464Z,3.90
2023-04-18T11:47:34.309Z,3.80
2023-04-18T11:50:03.937Z,4.00
2023-04-18T11:52:31.377Z,4.30
2023-04-18T11:55:21.158Z,4.85
2023-04-18T11:58:01.079Z,5.20
2023-04-18T12:00:39.477Z,5.55
2023-04-18T12:03:11.868Z,5.80
2023-04-18T12:05:40.205Z,5.70
2023-04-18T12:08:17.318Z,5.47
2023-04-18T12:10:50.529Z,6.05
2023-04-18T12:13:18.050Z,5.82
2023-04-18T12:15:46.263Z,6.17
2023-04-18T12:18:15.355Z,6.05
2023-04-18T12:20:54.313Z,6.22
2023-04-18T12:23:36.362Z,6.78
2023-04-18T12:26:07.673Z,6.97
2023-04-18T12:28:35.422Z,6.77
2023-04-18T12:31:02.556Z,6.97
2023-04-18T12:33:30.629Z,6.78
2023-04-18T12:35:57.457Z,7.68
2023-04-18T12:38:24.279Z,7.30
2023-04-18T12:40:51.693Z,7.37
2023-04-18T12:43:18.927Z,7.53
2023-04-18T12:45:46.902Z,7.28
2023-04-18T12:48:13.765Z,7.95
2023-04-18T12:50:40.456Z,8.10
2023-04-18T12:53:07.038Z,8.00
2023-04-18T12:55:33.637Z,7.68
2023-04-18T12:58:00.731Z,7.85
2023-04-18T13:00:30.133Z,8.13
2023-04-18T13:02:57.749Z,8.05
2023-04-18T13:05:29.224Z,8.33
2023-04-18T13:08:08.575Z,8.15
2023-04-18T13:10:39.700Z,8.65
2023-04-18T13:13:06.380Z,8.48
2023-04-18T13:15:40.692Z,8.37
2023-04-18T13:18:07.957Z,8.90
2023-04-18T13:20:34.940Z,8.48
2023-04-18T13:23:02.992Z,8.95
2023-04-18T13:25:29.679Z,8.93
2023-04-18T13:27:58.286Z,8.10
2023-04-18T13:30:24.867Z,8.57
2023-04-18T13:32:51.779Z,8.95
2023-04-18T13:35:18.488Z,9.07
2023-04-18T13:37:45.045Z,9.07
2023-04-18T13:40:12.103Z,8.65
2023-04-18T13:42:38.835Z,8.80
2023-04-18T13:45:06.283Z,9.23
2023-04-18T13:47:32.934Z,9.68
2023-04-18T13:49:59.546Z,9.40
2023-04-18T13:52:26.252Z,9.60
2023-04-18T13:54:53.098Z,10.13
2023-04-18T13:57:19.864Z,10.25
2023-04-18T13:59:46.894Z,10.50
2023-04-18T14:02:13.743Z,10.93
2023-04-18T14:04:40.988Z,10.00
2023-04-18T14:07:08.161Z,10.93
2023-04-18T14:09:34.837Z,10.55
2023-04-18T14:12:02.112Z,9.93
2023-04-18T14:14:28.759Z,10.68
2023-04-18T14:16:56.239Z,11.65
2023-04-18T14:19:23.262Z,10.60
2023-04-18T14:21:50.159Z,11.05
2023-04-18T14:24:17.108Z,11.25
2023-04-18T14:26:44.120Z,10.95
2023-04-18T14:29:11.754Z,10.93
2023-04-18T14:31:38.516Z,11.47
2023-04-18T14:34:05.643Z,11.85
2023-04-18T14:36:33.003Z,12.45
2023-04-18T14:38:59.591Z,11.75
2023-04-18T14:41:26.546Z,12.07
2023-04-18T14:43:53.404Z,12.33
2023-04-18T14:46:22.532Z,12.80
2023-04-18T14:48:49.389Z,12.93
2023-04-18T14:51:16.912Z,12.25
2023-04-18T14:53:44.517Z,12.32
2023-04-18T14:56:11.262Z,13.10
2023-04-18T14:58:38.351Z,12.98
2023-04-18T15:01:06.327Z,13.90
2023-04-18T15:03:33.431Z,13.75
2023-04-18T15:06:00.311Z,13.35
2023-04-18T15:08:27.046Z,13.00
2023-04-18T15:10:53.594Z,13.52
2023-04-18T15:13:20.450Z,13.55
2023-04-18T15:15:55.166Z,13.60
2023-04-18T15:18:22.030Z,13.45
2023-04-18T15:20:48.666Z,13.33
2023-04-18T15:23:15.518Z,13.23
2023-04-18T15:25:43.862Z,13.57
2023-04-18T15:28:10.532Z,15.43
2023-04-18T15:30:37.094Z,13.70
2023-04-18T15:33:03.771Z,13.00
2023-04-18T15:35:30.488Z,13.50
2023-04-18T15:37:58.255Z,13.57
2023-04-18T15:40:24.904Z,13.65
2023-04-18T15:42:53.791Z,13.40
2023-04-18T15:45:21.425Z,12.40
2023-04-18T15:47:48.153Z,13.30
2023-04-18T15:50:16.011Z,14.00
2023-04-18T15:52:42.757Z,13.60
2023-04-18T15:55:11.241Z,13.50
2023-04-18T15:57:37.790Z,12.10
2023-04-18T16:00:19.617Z,12.85
2023-04-18T16:02:46.869Z,13.77
2023-04-18T16:05:13.974Z,12.40
2023-04-18T16:07:42.388Z,13.13
2023-04-18T16:10:10.691Z,12.83
2023-04-18T16:12:38.563Z,13.13
2023-04-18T16:15:06.690Z,13.55
2023-04-18T16:17:33.295Z,13.98
2023-04-18T16:19:59.883Z,13.40
2023-04-18T16:22:27.289Z,13.87
2023-04-18T16:24:53.896Z,13.80
2023-04-18T16:27:20.559Z,13.45
2023-04-18T16:29:48.239Z,12.82
2023-04-18T16:32:14.880Z,11.88
2023-04-18T16:34:41.469Z,12.93
2023-04-18T16:37:08.106Z,11.98
2023-04-18T16:39:34.732Z,12.07
2023-04-18T16:42:01.498Z,12.40
2023-04-18T16:44:29.246Z,11.73
2023-04-18T16:46:56.019Z,11.60
2023-04-18T16:49:23.704Z,12.57
2023-04-18T16:51:50.414Z,12.75
2023-04-18T16:54:17.242Z,11.00
2023-04-18T16:56:44.815Z,11.23
2023-04-18T16:59:11.612Z,10.90
2023-04-18T17:01:38.315Z,11.18
2023-04-18T17:04:05.366Z,11.20
2023-04-18T17:06:32.775Z,11.57
2023-04-18T17:08:59.437Z,11.18
2023-04-18T17:11:26.531Z,11.53
2023-04-18T17:13:53.185Z,12.40
2023-04-18T17:16:20.036Z,12.35
2023-04-18T17:18:46.614Z,11.75
2023-04-18T17:21:13.206Z,12.52
2023-04-18T17:23:41.574Z,11.77
2023-04-18T17:26:11.212Z,11.75
2023-04-18T17:28:37.845Z,12.13
2023-04-18T17:31:04.747Z,11.25
2023-04-18T17:33:31.702Z,11.60
2023-04-18T17:35:58.683Z,10.50
2023-04-18T17:38:25.476Z,11.23
2023-04-18T17:41:02.592Z,11.13
2023-04-18T17:43:29.506Z,10.98
2023-04-18T17:45:56.991Z,11.50
2023-04-18T17:48:23.687Z,11.70
2023-04-18T17:50:50.292Z,11.50
2023-04-18T17:53:17.999Z,11.38
2023-04-18T17:55:45.322Z,11.73
2023-04-18T17:58:11.943Z,11.43
2023-04-18T18:00:38.495Z,11.00
2023-04-18T18:03:05.583Z,11.30
2023-04-18T18:05:32.400Z,11.75
2023-04-18T18:08:01.007Z,11.73
2023-04-18T18:10:28.053Z,11.52
2023-04-18T18:12:54.565Z,11.83
2023-04-18T18:15:21.255Z,12.05
2023-04-18T18:17:49.717Z,12.00
2023-04-18T18:20:17.082Z,11.80
2023-04-18T18:22:44.551Z,11.93
2023-04-18T18:25:11.134Z,11.00
2023-04-18T18:27:37.680Z,11.95
2023-04-18T18:30:04.725Z,12.40
2023-04-18T18:32:31.293Z,11.50
2023-04-18T18:34:58.045Z,11.70
2023-04-18T18:37:26.682Z,12.00
2023-04-18T18:39:59.885Z,11.80
2023-04-18T18:42:26.522Z,11.23
2023-04-18T18:44:53.041Z,12.10
2023-04-18T18:47:19.605Z,11.75
2023-04-18T18:49:46.536Z,12.23
2023-04-18T18:52:13.060Z,12.27
2023-04-18T18:54:39.617Z,11.75
2023-04-18T18:57:06.189Z,12.85
2023-04-18T18:59:32.719Z,13.05
2023-04-18T19:01:59.478Z,13.57
2023-04-18T19:04:26.540Z,13.57
2023-04-18T19:06:53.632Z,14.63
2023-04-18T19:09:21.252Z,14.30
2023-04-18T19:11:47.838Z,15.02
2023-04-18T19:14:14.453Z,14.47
2023-04-18T19:16:41.127Z,14.65
2023-04-18T19:19:07.732Z,15.07
2023-04-18T19:21:34.276Z,15.55
2023-04-18T19:24:00.815Z,14.30
2023-04-18T19:26:27.334Z,14.27
2023-04-18T19:28:54.500Z,13.48
2023-04-18T19:31:21.061Z,13.20
2023-04-18T19:33:47.580Z,13.23
2023-04-18T19:36:14.180Z,13.40
2023-04-18T19:38:41.561Z,12.93
2023-04-18T19:41:08.132Z,13.10
2023-04-18T19:43:34.811Z,13.30
2023-04-18T19:46:01.430Z,13.20
2023-04-18T19:48:28.103Z,12.57
2023-04-18T19:50:56.369Z,13.03
2023-04-18T19:53:23.781Z,12.85
2023-04-18T19:55:50.409Z,12.80
2023-04-18T19:58:46.820Z,12.93
2023-04-18T20:01:14.439Z,13.23
2023-04-18T20:03:41.447Z,13.33
2023-04-18T20:06:08.970Z,13.27
2023-04-18T20:08:37.007Z,13.32
2023-04-18T20:11:11.244Z,12.57
2023-04-18T20:13:38.234Z,12.60
2023-04-18T20:16:05.977Z,13.50
2023-04-18T20:18:33.991Z,11.90
2023-04-18T20:21:00.593Z,13.07
2023-04-18T20:23:27.406Z,12.18
2023-04-18T20:25:54.117Z,11.85
2023-04-18T20:28:20.706Z,12.80
2023-04-18T20:30:48.052Z,11.93
2023-04-18T20:33:14.738Z,13.07
2023-04-18T20:35:41.633Z,12.20
2023-04-18T20:38:09.815Z,12.05
2023-04-18T20:40:37.247Z,12.00
2023-04-18T20:43:04.249Z,12.40
2023-04-18T20:45:31.856Z,12.02
2023-04-18T20:47:58.870Z,11.48
2023-04-18T20:50:25.489Z,12.75
2023-04-18T20:52:52.026Z,12.40
2023-04-18T20:55:18.602Z,12.07
2023-04-18T20:57:45.361Z,12.52
2023-04-18T21:00:13.907Z,12.13
2023-04-18T21:02:41.687Z,11.23
2023-04-18T21:05:08.832Z,10.40
2023-04-18T21:07:36.142Z,11.20
2023-04-18T21:10:03.722Z,10.90
2023-04-18T21:12:30.437Z,10.35
2023-04-18T21:14:57.082Z,10.90
2023-04-18T21:17:25.522Z,11.10
2023-04-18T21:19:52.479Z,10.15
2023-04-18T21:22:19.179Z,9.82
2023-04-18T21:24:46.927Z,9.90
2023-04-18T21:27:15.053Z,10.27
2023-04-18T21:29:42.320Z,9.80
2023-04-18T21:32:08.886Z,9.70
2023-04-18T21:34:35.617Z,9.60
2023-04-18T21:37:02.215Z,10.27
2023-04-18T21:39:28.762Z,9.38
2023-04-18T21:41:55.339Z,9.80
2023-04-18T21:44:21.874Z,9.57
2023-04-18T21:46:48.436Z,9.45
2023-04-18T21:49:15.604Z,9.80
2023-04-18T21:51:42.492Z,9.48
2023-04-18T21:54:09.456Z,9.20
